createdAt,value
2023-05-29T00:01:06.574Z,11.55
2023-05-29T00:06:05.513Z,11.45
2023-05-29T00:11:04.458Z,11.45
2023-05-29T00:16:03.436Z,11.37
2023-05-29T00:21:02.361Z,11.38
2023-05-29T00:26:01.337Z,11.31
2023-05-29T00:31:00.576Z,11.40
2023-05-29T00:35:59.204Z,11.40
2023-05-29T00:40:58.149Z,11.31
2023-05-29T00:45:57.184Z,11.19
2023-05-29T00:50:56.337Z,11.18
2023-05-29T00:55:54.994Z,11.13
2023-05-29T01:00:54.354Z,11.05
2023-05-29T01:05:52.915Z,10.93
2023-05-29T01:10:51.857Z,10.90
2023-05-29T01:15:50.849Z,10.82
2023-05-29T01:20:49.774Z,10.73
2023-05-29T01:25:48.731Z,10.58
2023-05-29T01:30:47.737Z,10.42
2023-05-29T01:35:46.614Z,10.23
2023-05-29T01:40:45.545Z,10.23
2023-05-29T01:45:44.501Z,10.14
2023-05-29T01:50:43.467Z,10.12
2023-05-29T01:55:42.445Z,10.03
2023-05-29T02:00:41.411Z,9.99
2023-05-29T02:05:40.277Z,9.91
2023-05-29T02:10:39.247Z,9.87
2023-05-29T02:15:38.168Z,9.77
2023-05-29T02:20:37.181Z,9.69
2023-05-29T02:25:36.092Z,9.65
2023-05-29T02:30:35.024Z,9.57
2023-05-29T02:35:33.971Z,9.57
2023-05-29T02:40:33.178Z,9.51
2023-05-29T02:45:31.847Z,9.48
2023-05-29T02:50:30.814Z,9.47
2023-05-29T02:55:29.769Z,9.37
2023-05-29T03:00:28.694Z,9.29
2023-05-29T03:05:27.645Z,9.23
2023-05-29T03:10:26.618Z,9.12
2023-05-29T03:15:25.525Z,9.16
2023-05-29T03:20:24.550Z,9.14
2023-05-29T03:25:23.446Z,9.14
2023-05-29T03:30:22.387Z,9.15
2023-05-29T03:35:21.329Z,9.16
2023-05-29T03:40:20.311Z,9.22
2023-05-29T03:45:19.248Z,9.22
2023-05-29T03:50:18.215Z,9.19
2023-05-29T03:55:17.247Z,9.27
2023-05-29T04:00:16.080Z,9.24
2023-05-29T04:05:15.075Z,9.26
2023-05-29T04:10:13.972Z,9.40
2023-05-29T04:15:12.902Z,9.59
2023-05-29T04:20:11.890Z,9.73
2023-05-29T04:25:10.843Z,9.87
2023-05-29T04:30:09.772Z,10.06
2023-05-29T04:35:08.709Z,10.30
2023-05-29T04:40:07.637Z,10.55
2023-05-29T04:45:06.781Z,10.80
2023-05-29T04:50:05.579Z,11.08
2023-05-29T04:55:04.489Z,11.30
2023-05-29T05:00:03.473Z,11.55
2023-05-29T05:05:02.387Z,11.71
2023-05-29T05:10:01.328Z,11.93
2023-05-29T05:15:00.342Z,12.15
2023-05-29T05:19:59.251Z,12.93
2023-05-29T05:24:58.241Z,12.91
2023-05-29T05:29:57.153Z,12.91
2023-05-29T05:34:56.129Z,12.96
2023-05-29T05:39:55.028Z,13.14
2023-05-29T05:44:54.126Z,13.32
2023-05-29T05:49:52.935Z,13.51
2023-05-29T05:54:51.858Z,13.68
2023-05-29T05:59:50.826Z,14.03
2023-05-29T06:04:49.899Z,14.36
2023-05-29T06:09:48.740Z,14.66
2023-05-29T06:14:47.641Z,14.92
2023-05-29T06:19:46.648Z,15.08
2023-05-29T06:24:45.563Z,15.22
2023-05-29T06:29:44.500Z,15.41
2023-05-29T06:34:43.449Z,15.69
2023-05-29T06:39:42.395Z,15.87
2023-05-29T06:44:41.359Z,16.00
2023-05-29T06:49:40.291Z,16.17
2023-05-29T06:54:39.281Z,16.44
2023-05-29T06:59:38.215Z,16.59
2023-05-29T07:04:37.148Z,16.67
2023-05-29T07:09:36.110Z,16.84
2023-05-29T07:14:35.042Z,17.06
2023-05-29T07:19:34.021Z,17.22
2023-05-29T07:24:32.924Z,17.38
2023-05-29T07:29:31.889Z,17.43
2023-05-29T07:34:30.840Z,17.63
2023-05-29T07:39:29.777Z,17.78
2023-05-29T07:44:28.722Z,17.96
2023-05-29T07:49:27.677Z,18.17
2023-05-29T07:54:26.629Z,18.18
2023-05-29T07:59:25.613Z,18.27
2023-05-29T08:04:24.510Z,18.42
2023-05-29T08:09:23.485Z,18.57
2023-05-29T08:14:22.439Z,18.88
2023-05-29T08:19:21.347Z,19.16
2023-05-29T08:24:20.344Z,19.35
2023-05-29T08:29:19.306Z,19.38
2023-05-29T08:34:18.252Z,19.27
2023-05-29T08:39:17.232Z,19.27
2023-05-29T08:44:16.116Z,19.24
2023-05-29T08:49:15.118Z,19.22
2023-05-29T08:54:14.053Z,19.34
2023-05-29T08:59:12.982Z,19.42
2023-05-29T09:04:12.042Z,19.35
2023-05-29T09:09:10.920Z,19.54
2023-05-29T09:14:09.874Z,19.81
2023-05-29T09:19:08.833Z,19.84
2023-05-29T09:24:07.715Z,19.74
2023-05-29T09:29:06.676Z,19.70
2023-05-29T09:34:05.602Z,19.87
2023-05-29T09:39:14.150Z,19.94
2023-05-29T09:44:03.493Z,19.93
2023-05-29T09:49:02.453Z,20.04
2023-05-29T09:54:01.406Z,20.18
2023-05-29T09:59:00.352Z,20.27
2023-05-29T10:03:59.626Z,20.29
2023-05-29T10:08:58.239Z,20.41
2023-05-29T10:13:57.254Z,20.49
2023-05-29T10:18:56.122Z,20.70
2023-05-29T10:23:55.205Z,20.77
2023-05-29T10:28:54.142Z,20.83
2023-05-29T10:33:52.949Z,20.70
2023-05-29T10:38:51.876Z,20.65
2023-05-29T10:43:50.846Z,20.67
2023-05-29T10:48:50.309Z,20.56
2023-05-29T10:53:48.720Z,20.42
2023-05-29T10:58:47.668Z,20.29
2023-05-29T11:03:46.719Z,20.11
2023-05-29T11:08:45.620Z,20.09
2023-05-29T11:13:44.542Z,20.23
2023-05-29T11:18:43.485Z,20.41
2023-05-29T11:23:42.415Z,20.60
2023-05-29T11:28:41.386Z,20.82
2023-05-29T11:33:40.405Z,20.98
2023-05-29T11:38:39.305Z,21.19
2023-05-29T11:43:38.265Z,21.34
2023-05-29T11:48:37.164Z,21.51
2023-05-29T11:53:36.110Z,21.53
2023-05-29T11:58:35.084Z,21.28
2023-05-29T12:03:34.177Z,21.34
2023-05-29T12:08:34.094Z,21.28
2023-05-29T12:13:32.033Z,21.18
2023-05-29T12:18:30.894Z,21.04
2023-05-29T12:23:29.834Z,21.13
2023-05-29T12:28:28.746Z,21.38
2023-05-29T12:33:27.734Z,21.65
2023-05-29T12:38:26.623Z,21.84
2023-05-29T12:43:25.606Z,22.04
2023-05-29T12:48:24.718Z,22.01
2023-05-29T12:53:23.513Z,21.67
2023-05-29T12:58:22.447Z,21.63
2023-05-29T13:03:21.492Z,21.85
2023-05-29T13:08:20.373Z,21.90
2023-05-29T13:13:19.318Z,21.66
2023-05-29T13:18:18.225Z,21.66
2023-05-29T13:23:17.189Z,21.81
2023-05-29T13:28:16.127Z,21.93
2023-05-29T13:33:15.111Z,22.03
2023-05-29T13:38:14.022Z,22.09
2023-05-29T13:43:12.983Z,21.82
2023-05-29T13:48:11.936Z,21.78
2023-05-29T13:53:10.867Z,21.82
2023-05-29T13:58:09.829Z,21.77
2023-05-29T14:03:08.882Z,21.73
2023-05-29T14:08:07.730Z,21.67
2023-05-29T14:13:06.664Z,21.66
2023-05-29T14:18:05.671Z,21.73
2023-05-29T14:23:04.674Z,21.78
2023-05-29T14:28:03.477Z,21.78
2023-05-29T14:33:02.498Z,21.88
2023-05-29T14:38:01.416Z,21.82
2023-05-29T14:43:00.340Z,21.55
2023-05-29T14:47:59.336Z,21.43
2023-05-29T14:52:58.240Z,21.59
2023-05-29T14:57:57.202Z,21.82
2023-05-29T15:02:56.207Z,21.98
2023-05-29T15:07:55.094Z,21.98
2023-05-29T15:12:54.116Z,21.96
2023-05-29T15:17:53.034Z,21.77
2023-05-29T15:22:51.945Z,21.69
2023-05-29T15:27:50.914Z,21.82
2023-05-29T15:32:49.955Z,21.73
2023-05-29T15:37:48.804Z,21.73
2023-05-29T15:42:47.738Z,21.66
2023-05-29T15:47:46.726Z,21.45
2023-05-29T15:52:54.334Z,21.44
2023-05-29T15:57:44.574Z,21.32
2023-05-29T16:02:43.582Z,21.20
2023-05-29T16:07:42.552Z,21.19
2023-05-29T16:12:41.424Z,21.14
2023-05-29T16:17:40.408Z,21.07
2023-05-29T16:22:42.192Z,21.04
2023-05-29T16:27:38.455Z,20.93
2023-05-29T16:32:37.344Z,20.85
2023-05-29T16:37:36.157Z,20.77
2023-05-29T16:42:35.108Z,20.73
2023-05-29T16:47:34.089Z,20.73
2023-05-29T16:52:33.023Z,20.64
2023-05-29T16:57:31.955Z,20.60
2023-05-29T17:02:30.981Z,20.53
2023-05-29T17:07:29.840Z,20.49
2023-05-29T17:12:28.779Z,20.44
2023-05-29T17:17:27.751Z,20.41
2023-05-29T17:22:26.731Z,20.30
2023-05-29T17:27:25.755Z,20.17
2023-05-29T17:32:24.597Z,20.07
2023-05-29T17:37:23.536Z,19.96
2023-05-29T17:42:22.458Z,19.87
2023-05-29T17:47:21.460Z,19.67
2023-05-29T17:52:20.393Z,19.42
2023-05-29T17:57:19.340Z,19.27
2023-05-29T18:02:18.283Z,19.15
2023-05-29T18:07:17.210Z,19.00
2023-05-29T18:12:16.411Z,18.91
2023-05-29T18:17:15.137Z,18.81
2023-05-29T18:22:14.103Z,18.74
2023-05-29T18:27:13.222Z,18.61
2023-05-29T18:32:12.041Z,18.46
2023-05-29T18:37:10.908Z,18.34
2023-05-29T18:42:09.938Z,18.20
2023-05-29T18:47:08.798Z,18.02
2023-05-29T18:52:07.799Z,17.84
2023-05-29T18:57:06.698Z,17.78
2023-05-29T19:02:05.774Z,17.72
2023-05-29T19:07:04.594Z,17.66
2023-05-29T19:12:03.557Z,17.62
2023-05-29T19:17:02.524Z,17.54
2023-05-29T19:22:01.449Z,17.47
2023-05-29T19:27:00.439Z,17.46
2023-05-29T19:31:59.363Z,17.45
2023-05-29T19:36:58.283Z,17.30
2023-05-29T19:41:57.231Z,17.14
2023-05-29T19:46:56.232Z,17.04
2023-05-29T19:51:55.107Z,16.97
2023-05-29T19:56:54.076Z,16.87
2023-05-29T20:01:53.072Z,16.74
2023-05-29T20:06:52.080Z,16.67
2023-05-29T20:11:50.927Z,16.59
2023-05-29T20:16:49.970Z,16.52
2023-05-29T20:21:48.816Z,16.39
2023-05-29T20:26:47.754Z,16.25
2023-05-29T20:31:46.804Z,16.17
2023-05-29T20:36:45.662Z,16.16
2023-05-29T20:41:44.620Z,16.09
2023-05-29T20:46:43.559Z,15.91
2023-05-29T20:51:42.517Z,15.72
2023-05-29T20:56:41.556Z,15.40
2023-05-29T21:01:40.528Z,15.17
2023-05-29T21:06:39.424Z,14.87
2023-05-29T21:11:38.299Z,14.78
2023-05-29T21:16:37.346Z,14.74
2023-05-29T21:21:36.227Z,14.63
2023-05-29T21:26:35.219Z,14.49
2023-05-29T21:31:34.125Z,14.38
2023-05-29T21:36:33.072Z,14.31
2023-05-29T21:41:32.002Z,14.12
2023-05-29T21:46:30.920Z,13.98
2023-05-29T21:51:29.919Z,13.96
2023-05-29T21:56:28.901Z,13.88
2023-05-29T22:01:27.842Z,13.80
2023-05-29T22:06:26.786Z,13.58
2023-05-29T22:11:25.676Z,13.57
2023-05-29T22:16:24.699Z,13.47
2023-05-29T22:21:23.611Z,13.19
2023-05-29T22:26:22.524Z,13.02
2023-05-29T22:31:21.487Z,12.90
2023-05-29T22:36:20.465Z,12.79
2023-05-29T22:41:19.781Z,12.65
2023-05-29T22:46:18.887Z,12.50
2023-05-29T22:51:17.291Z,12.33
2023-05-29T22:56:16.228Z,12.14
2023-05-29T23:01:15.179Z,12.13
2023-05-29T23:06:14.131Z,12.10
2023-05-29T23:11:13.023Z,12.17
2023-05-29T23:16:12.092Z,12.10
2023-05-29T23:21:10.898Z,11.93
2023-05-29T23:26:09.908Z,11.91
2023-05-29T23:31:08.852Z,11.62
2023-05-29T23:36:07.786Z,11.56
2023-05-29T23:41:06.733Z,11.43
2023-05-29T23:46:05.751Z,11.28
2023-05-29T23:51:04.667Z,11.11
2023-05-29T23:56:03.562Z,10.95
